sensor_id;sensor_type;location;lat;lon;timestamp;pressure;altitude;pressure_sealevel;temperature;humidity
16690;BME280;8458;52.220;9.884;2023-11-19T00:00:24;100161.75;;;6.74;100.00
16690;BME280;8458;52.220;9.884;2023-11-19T00:02:51;100156.50;;;6.72;100.00
16690;BME280;8458;52.220;9.884;2023-11-19T00:05:18;100149.59;;;6.70;100.00
16690;BME280;8458;52.220;9.884;2023-11-19T00:07:44;100132.03;;;6.76;100.00
16690;BME280;8458;52.220;9.884;2023-11-19T00:10:14;100131.84;;;6.82;100.00
16690;BME280;8458;52.220;9.884;2023-11-19T00:12:44;100131.59;;;6.84;100.00
16690;BME280;8458;52.220;9.884;2023-11-19T00:15:12;100130.53;;;6.85;100.00
16690;BME280;8458;52.220;9.884;2023-11-19T00:17:38;100131.59;;;6.84;100.00
16690;BME280;8458;52.220;9.884;2023-11-19T00:20:10;100124.50;;;6.88;100.00
16690;BME280;8458;52.220;9.884;2023-11-19T00:22:37;100113.38;;;6.83;100.00
16690;BME280;8458;52.220;9.884;2023-11-19T00:25:04;100121.66;;;6.83;100.00
16690;BME280;8458;52.220;9.884;2023-11-19T00:27:33;100109.28;;;6.86;100.00
16690;BME280;8458;52.220;9.884;2023-11-19T00:29:59;100103.47;;;6.82;100.00
16690;BME280;8458;52.220;9.884;2023-11-19T00:32:26;100096.28;;;6.81;100.00
16690;BME280;8458;52.220;9.884;2023-11-19T00:34:52;100085.91;;;6.88;100.00
16690;BME280;8458;52.220;9.884;2023-11-19T00:37:18;100076.53;;;6.89;100.00
16690;BME280;8458;52.220;9.884;2023-11-19T00:39:45;100074.38;;;6.91;100.00
16690;BME280;8458;52.220;9.884;2023-11-19T00:42:12;100090.66;;;6.93;100.00
16690;BME280;8458;52.220;9.884;2023-11-19T00:44:40;100088.78;;;6.98;100.00
16690;BME280;8458;52.220;9.884;2023-11-19T00:47:07;100088.38;;;7.07;100.00
16690;BME280;8458;52.220;9.884;2023-11-19T00:49:33;100085.66;;;7.12;100.00
16690;BME280;8458;52.220;9.884;2023-11-19T00:52:00;100085.16;;;7.15;100.00
16690;BME280;8458;52.220;9.884;2023-11-19T00:54:27;100094.00;;;7.17;100.00
16690;BME280;8458;52.220;9.884;2023-11-19T00:56:54;100074.78;;;7.22;100.00
16690;BME280;8458;52.220;9.884;2023-11-19T00:59:21;100078.91;;;7.25;100.00
16690;BME280;8458;52.220;9.884;2023-11-19T01:01:49;100081.75;;;7.30;100.00
16690;BME280;8458;52.220;9.884;2023-11-19T01:04:16;100073.22;;;7.31;100.00
16690;BME280;8458;52.220;9.884;2023-11-19T01:06:43;100073.03;;;7.38;100.00
16690;BME280;8458;52.220;9.884;2023-11-19T01:09:09;100069.44;;;7.38;100.00
16690;BME280;8458;52.220;9.884;2023-11-19T01:11:36;100069.47;;;7.43;100.00
16690;BME280;8458;52.220;9.884;2023-11-19T01:14:03;100066.47;;;7.44;100.00
16690;BME280;8458;52.220;9.884;2023-11-19T01:16:29;100057.97;;;7.51;100.00
16690;BME280;8458;52.220;9.884;2023-11-19T01:18:57;100041.50;;;7.56;100.00
16690;BME280;8458;52.220;9.884;2023-11-19T01:21:24;100039.84;;;7.60;100.00
16690;BME280;8458;52.220;9.884;2023-11-19T01:23:51;100039.59;;;7.62;100.00
16690;BME280;8458;52.220;9.884;2023-11-19T01:26:17;100036.06;;;7.66;100.00
16690;BME280;8458;52.220;9.884;2023-11-19T01:28:43;100026.97;;;7.66;100.00
16690;BME280;8458;52.220;9.884;2023-11-19T01:31:11;100017.84;;;7.65;100.00
16690;BME280;8458;52.220;9.884;2023-11-19T01:33:38;100025.88;;;7.67;100.00
16690;BME280;8458;52.220;9.884;2023-11-19T01:36:09;100032.22;;;7.67;100.00
16690;BME280;8458;52.220;9.884;2023-11-19T01:38:36;100027.31;;;7.75;100.00
16690;BME280;8458;52.220;9.884;2023-11-19T01:41:03;100012.41;;;7.76;100.00
16690;BME280;8458;52.220;9.884;2023-11-19T01:43:33;100002.50;;;7.75;100.00
16690;BME280;8458;52.220;9.884;2023-11-19T01:46:00;100011.28;;;7.71;100.00
16690;BME280;8458;52.220;9.884;2023-11-19T01:48:27;100007.22;;;7.79;100.00
16690;BME280;8458;52.220;9.884;2023-11-19T01:50:53;99998.69;;;7.81;100.00
16690;BME280;8458;52.220;9.884;2023-11-19T01:53:21;99992.63;;;7.84;100.00
16690;BME280;8458;52.220;9.884;2023-11-19T01:55:49;100000.59;;;7.80;100.00
16690;BME280;8458;52.220;9.884;2023-11-19T01:58:18;99983.22;;;7.85;100.00
16690;BME280;8458;52.220;9.884;2023-11-19T02:00:45;99982.72;;;7.88;100.00
16690;BME280;8458;52.220;9.884;2023-11-19T02:03:12;99984.69;;;7.93;100.00
16690;BME280;8458;52.220;9.884;2023-11-19T02:05:39;99978.88;;;7.94;100.00
16690;BME280;8458;52.220;9.884;2023-11-19T02:08:06;99970.06;;;7.92;100.00
16690;BME280;8458;52.220;9.884;2023-11-19T02:10:34;99972.25;;;7.90;100.00
16690;BME280;8458;52.220;9.884;2023-11-19T02:13:01;99969.78;;;7.94;100.00
16690;BME280;8458;52.220;9.884;2023-11-19T02:15:30;99950.19;;;7.95;100.00
16690;BME280;8458;52.220;9.884;2023-11-19T02:17:57;99950.19;;;7.95;100.00
16690;BME280;8458;52.220;9.884;2023-11-19T02:20:23;99957.63;;;7.95;100.00
16690;BME280;8458;52.220;9.884;2023-11-19T02:22:51;99941.88;;;7.90;100.00
16690;BME280;8458;52.220;9.884;2023-11-19T02:25:29;99944.16;;;7.98;100.00
16690;BME280;8458;52.220;9.884;2023-11-19T02:28:00;99947.44;;;7.95;100.00
16690;BME280;8458;52.220;9.884;2023-11-19T02:30:26;99933.09;;;7.98;100.00
16690;BME280;8458;52.220;9.884;2023-11-19T02:32:54;99931.72;;;8.01;100.00
16690;BME280;8458;52.220;9.884;2023-11-19T02:35:22;99921.78;;;8.00;100.00
16690;BME280;8458;52.220;9.884;2023-11-19T02:37:49;99925.34;;;7.95;100.00
16690;BME280;8458;52.220;9.884;2023-11-19T02:40:15;99915.41;;;7.94;100.00
16690;BME280;8458;52.220;9.884;2023-11-19T02:42:42;99895.53;;;7.92;100.00
16690;BME280;8458;52.220;9.884;2023-11-19T02:45:10;99889.47;;;7.95;100.00
16690;BME280;8458;52.220;9.884;2023-11-19T02:47:40;99903.28;;;8.00;100.00
16690;BME280;8458;52.220;9.884;2023-11-19T02:50:08;99896.69;;;8.06;100.00
16690;BME280;8458;52.220;9.884;2023-11-19T02:52:39;99882.09;;;8.11;100.00
16690;BME280;8458;52.220;9.884;2023-11-19T02:55:06;99883.22;;;8.15;100.00
16690;BME280;8458;52.220;9.884;2023-11-19T02:57:35;99856.44;;;8.16;100.00
16690;BME280;8458;52.220;9.884;2023-11-19T03:00:01;99872.47;;;8.19;100.00
16690;BME280;8458;52.220;9.884;2023-11-19T03:02:39;99841.00;;;8.20;100.00
16690;BME280;8458;52.220;9.884;2023-11-19T03:05:10;99850.66;;;8.22;100.00
16690;BME280;8458;52.220;9.884;2023-11-19T03:07:37;99854.00;;;8.24;100.00
16690;BME280;8458;52.220;9.884;2023-11-19T03:10:03;99838.25;;;8.30;100.00
16690;BME280;8458;52.220;9.884;2023-11-19T03:12:31;99833.84;;;8.29;100.00
16690;BME280;8458;52.220;9.884;2023-11-19T03:14:58;99837.72;;;8.28;100.00
16690;BME280;8458;52.220;9.884;2023-11-19T03:17:24;99820.88;;;8.35;100.00
16690;BME280;8458;52.220;9.884;2023-11-19T03:19:53;99826.16;;;8.41;100.00
16690;BME280;8458;52.220;9.884;2023-11-19T03:22:19;99830.84;;;8.41;100.00
16690;BME280;8458;52.220;9.884;2023-11-19T03:24:46;99822.63;;;8.46;100.00
16690;BME280;8458;52.220;9.884;2023-11-19T03:27:12;99810.19;;;8.49;100.00
16690;BME280;8458;52.220;9.884;2023-11-19T03:29:39;99821.53;;;8.52;100.00
16690;BME280;8458;52.220;9.884;2023-11-19T03:32:05;99817.38;;;8.55;100.00
16690;BME280;8458;52.220;9.884;2023-11-19T03:34:32;99822.34;;;8.58;100.00
16690;BME280;8458;52.220;9.884;2023-11-19T03:36:59;99838.94;;;8.58;100.00
16690;BME280;8458;52.220;9.884;2023-11-19T03:39:26;99829.28;;;8.60;100.00
16690;BME280;8458;52.220;9.884;2023-11-19T03:41:52;99831.50;;;8.64;100.00
16690;BME280;8458;52.220;9.884;2023-11-19T03:44:19;99821.84;;;8.66;100.00
16690;BME280;8458;52.220;9.884;2023-11-19T03:46:46;99828.47;;;8.70;100.00
16690;BME280;8458;52.220;9.884;2023-11-19T03:49:13;99835.66;;;8.71;100.00
16690;BME280;8458;52.220;9.884;2023-11-19T03:51:39;99827.09;;;8.73;100.00
16690;BME280;8458;52.220;9.884;2023-11-19T03:54:07;99821.31;;;8.79;100.00
16690;BME280;8458;52.220;9.884;2023-11-19T03:56:34;99813.59;;;8.82;100.00
16690;BME280;8458;52.220;9.884;2023-11-19T03:59:00;99803.63;;;8.86;100.00
16690;BME280;8458;52.220;9.884;2023-11-19T04:01:27;99799.50;;;8.83;100.00
16690;BME280;8458;52.220;9.884;2023-11-19T04:03:54;99806.09;;;8.87;100.00
16690;BME280;8458;52.220;9.884;2023-11-19T04:06:21;99802.25;;;8.93;100.00
16690;BME280;8458;52.220;9.884;2023-11-19T04:08:47;99802.50;;;8.92;100.00
16690;BME280;8458;52.220;9.884;2023-11-19T04:11:16;99794.25;;;8.97;100.00
16690;BME280;8458;52.220;9.884;2023-11-19T04:13:42;99776.56;;;9.03;100.00
16690;BME280;8458;52.220;9.884;2023-11-19T04:16:09;99773.50;;;9.05;100.00
16690;BME280;8458;52.220;9.884;2023-11-19T04:18:35;99797.00;;;9.07;100.00
16690;BME280;8458;52.220;9.884;2023-11-19T04:21:05;99793.13;;;9.08;100.00
16690;BME280;8458;52.220;9.884;2023-11-19T04:23:33;99793.13;;;9.13;100.00
16690;BME280;8458;52.220;9.884;2023-11-19T04:26:01;99796.47;;;9.15;100.00
16690;BME280;8458;52.220;9.884;2023-11-19T04:28:30;99794.50;;;9.21;100.00
16690;BME280;8458;52.220;9.884;2023-11-19T04:30:57;99787.06;;;9.22;100.00
16690;BME280;8458;52.220;9.884;2023-11-19T04:33:23;99787.03;;;9.27;100.00
16690;BME280;8458;52.220;9.884;2023-11-19T04:35:50;99787.03;;;9.27;100.00
16690;BME280;8458;52.220;9.884;2023-11-19T04:38:16;99800.03;;;9.31;100.00
16690;BME280;8458;52.220;9.884;2023-11-19T04:40:43;99796.44;;;9.36;100.00
16690;BME280;8458;52.220;9.884;2023-11-19T04:43:09;99793.41;;;9.38;100.00
16690;BME280;8458;52.220;9.884;2023-11-19T04:45:37;99799.47;;;9.40;100.00
16690;BME280;8458;52.220;9.884;2023-11-19T04:48:04;99801.69;;;9.43;100.00
16690;BME280;8458;52.220;9.884;2023-11-19T04:50:31;99796.97;;;9.48;100.00
16690;BME280;8458;52.220;9.884;2023-11-19T04:52:57;99797.25;;;9.52;100.00
16690;BME280;8458;52.220;9.884;2023-11-19T04:55:24;99797.22;;;9.57;100.00
16690;BME280;8458;52.220;9.884;2023-11-19T04:57:53;99809.97;;;9.58;100.00
16690;BME280;8458;52.220;9.884;2023-11-19T05:00:20;99804.97;;;9.60;100.00
16690;BME280;8458;52.220;9.884;2023-11-19T05:02:49;99791.41;;;9.69;100.00
16690;BME280;8458;52.220;9.884;2023-11-19T05:05:16;99804.41;;;9.68;100.00
16690;BME280;8458;52.220;9.884;2023-11-19T05:07:42;99806.91;;;9.70;100.00
16690;BME280;8458;52.220;9.884;2023-11-19T05:10:09;99800.81;;;9.73;100.00
16690;BME280;8458;52.220;9.884;2023-11-19T05:12:35;99793.59;;;9.72;100.00
16690;BME280;8458;52.220;9.884;2023-11-19T05:15:02;99787.50;;;9.75;100.00
16690;BME280;8458;52.220;9.884;2023-11-19T05:17:29;99785.84;;;9.74;100.00
16690;BME280;8458;52.220;9.884;2023-11-19T05:19:57;99791.66;;;9.78;100.00
16690;BME280;8458;52.220;9.884;2023-11-19T05:22:22;99785.28;;;9.77;100.00
16690;BME280;8458;52.220;9.884;2023-11-19T05:24:49;99767.56;;;9.78;100.00
16690;BME280;8458;52.220;9.884;2023-11-19T05:27:15;99765.88;;;9.77;100.00
16690;BME280;8458;52.220;9.884;2023-11-19T05:29:42;99762.03;;;9.78;100.00
16690;BME280;8458;52.220;9.884;2023-11-19T05:32:09;99754.81;;;9.82;100.00
16690;BME280;8458;52.220;9.884;2023-11-19T05:34:35;99751.19;;;9.82;100.00
16690;BME280;8458;52.220;9.884;2023-11-19T05:37:03;99748.72;;;9.85;100.00
16690;BME280;8458;52.220;9.884;2023-11-19T05:39:31;99755.31;;;9.90;100.00
16690;BME280;8458;52.220;9.884;2023-11-19T05:41:57;99755.59;;;9.88;100.00
16690;BME280;8458;52.220;9.884;2023-11-19T05:44:24;99758.66;;;9.92;100.00
16690;BME280;8458;52.220;9.884;2023-11-19T05:46:50;99766.13;;;9.96;100.00
16690;BME280;8458;52.220;9.884;2023-11-19T05:49:17;99765.56;;;9.99;100.00
16690;BME280;8458;52.220;9.884;2023-11-19T05:51:43;99768.56;;;10.03;100.00
16690;BME280;8458;52.220;9.884;2023-11-19T05:54:12;99771.59;;;10.12;100.00
16690;BME280;8458;52.220;9.884;2023-11-19T05:56:39;99761.88;;;10.14;100.00
16690;BME280;8458;52.220;9.884;2023-11-19T05:59:06;99762.44;;;10.16;100.00
16690;BME280;8458;52.220;9.884;2023-11-19T06:01:40;99757.16;;;10.20;100.00
16690;BME280;8458;52.220;9.884;2023-11-19T06:04:07;99754.13;;;10.16;100.00
16690;BME280;8458;52.220;9.884;2023-11-19T06:06:33;99754.94;;;10.17;100.00
16690;BME280;8458;52.220;9.884;2023-11-19T06:09:00;99758.25;;;10.19;100.00
16690;BME280;8458;52.220;9.884;2023-11-19T06:11:33;99749.66;;;10.20;100.00
16690;BME280;8458;52.220;9.884;2023-11-19T06:14:01;99745.78;;;10.21;100.00
16690;BME280;8458;52.220;9.884;2023-11-19T06:16:27;99752.13;;;10.22;100.00
16690;BME280;8458;52.220;9.884;2023-11-19T06:18:54;99744.63;;;10.28;100.00
16690;BME280;8458;52.220;9.884;2023-11-19T06:21:20;99750.75;;;10.25;100.00
16690;BME280;8458;52.220;9.884;2023-11-19T06:23:47;99757.97;;;10.26;100.00
16690;BME280;8458;52.220;9.884;2023-11-19T06:26:14;99755.97;;;10.31;100.00
16690;BME280;8458;52.220;9.884;2023-11-19T06:28:42;99751.78;;;10.39;100.00
16690;BME280;8458;52.220;9.884;2023-11-19T06:31:08;99761.16;;;10.48;100.00
16690;BME280;8458;52.220;9.884;2023-11-19T06:33:35;99768.03;;;10.56;100.00
16690;BME280;8458;52.220;9.884;2023-11-19T06:36:01;99767.44;;;10.64;100.00
16690;BME280;8458;52.220;9.884;2023-11-19T06:38:28;99767.66;;;10.73;100.00
16690;BME280;8458;52.220;9.884;2023-11-19T06:40:54;99786.16;;;10.83;100.00
16690;BME280;8458;52.220;9.884;2023-11-19T06:43:20;99783.66;;;10.86;100.00
16690;BME280;8458;52.220;9.884;2023-11-19T06:45:49;99795.81;;;10.90;100.00
16690;BME280;8458;52.220;9.884;2023-11-19T06:48:15;99794.94;;;10.95;100.00
16690;BME280;8458;52.220;9.884;2023-11-19T06:50:42;99783.84;;;11.00;100.00
16690;BME280;8458;52.220;9.884;2023-11-19T06:53:09;99784.00;;;11.09;100.00
16690;BME280;8458;52.220;9.884;2023-11-19T06:55:35;99787.06;;;11.12;100.00
16690;BME280;8458;52.220;9.884;2023-11-19T06:58:02;99788.41;;;11.15;100.00
16690;BME280;8458;52.220;9.884;2023-11-19T07:00:28;99803.66;;;11.18;100.00
16690;BME280;8458;52.220;9.884;2023-11-19T07:02:59;99803.38;;;11.19;100.00
16690;BME280;8458;52.220;9.884;2023-11-19T07:05:25;99803.88;;;11.21;100.00
16690;BME280;8458;52.220;9.884;2023-11-19T07:07:52;99810.28;;;11.22;100.00
16690;BME280;8458;52.220;9.884;2023-11-19T07:10:19;99810.56;;;11.20;100.00
16690;BME280;8458;52.220;9.884;2023-11-19T07:12:46;99806.09;;;11.24;100.00
16690;BME280;8458;52.220;9.884;2023-11-19T07:15:15;99815.84;;;11.22;100.00
16690;BME280;8458;52.220;9.884;2023-11-19T07:17:42;99824.63;;;11.29;100.00
16690;BME280;8458;52.220;9.884;2023-11-19T07:20:12;99828.28;;;11.24;100.00
16690;BME280;8458;52.220;9.884;2023-11-19T07:22:42;99820.50;;;11.26;100.00
16690;BME280;8458;52.220;9.884;2023-11-19T07:25:11;99817.19;;;11.24;100.00
16690;BME280;8458;52.220;9.884;2023-11-19T07:27:37;99822.72;;;11.24;100.00
16690;BME280;8458;52.220;9.884;2023-11-19T07:30:05;99832.44;;;11.27;100.00
16690;BME280;8458;52.220;9.884;2023-11-19T07:32:32;99829.94;;;11.25;100.00
16690;BME280;8458;52.220;9.884;2023-11-19T07:34:59;99841.06;;;11.25;100.00
16690;BME280;8458;52.220;9.884;2023-11-19T07:37:27;99838.31;;;11.20;100.00
16690;BME280;8458;52.220;9.884;2023-11-19T07:39:53;99845.50;;;11.21;100.00
16690;BME280;8458;52.220;9.884;2023-11-19T07:42:20;99842.72;;;11.26;100.00
16690;BME280;8458;52.220;9.884;2023-11-19T07:44:46;99848.78;;;11.28;100.00
16690;BME280;8458;52.220;9.884;2023-11-19T07:47:12;99842.13;;;11.29;100.00
16690;BME280;8458;52.220;9.884;2023-11-19T07:49:39;99840.72;;;11.32;100.00
16690;BME280;8458;52.220;9.884;2023-11-19T07:52:05;99849.00;;;11.37;100.00
16690;BME280;8458;52.220;9.884;2023-11-19T07:54:33;99848.44;;;11.40;100.00
16690;BME280;8458;52.220;9.884;2023-11-19T07:57:00;99854.22;;;11.44;100.00
16690;BME280;8458;52.220;9.884;2023-11-19T07:59:26;99854.75;;;11.46;100.00
16690;BME280;8458;52.220;9.884;2023-11-19T08:01:53;99849.19;;;11.46;100.00
16690;BME280;8458;52.220;9.884;2023-11-19T08:04:19;99850.88;;;11.47;100.00
16690;BME280;8458;52.220;9.884;2023-11-19T08:06:46;99858.09;;;11.48;100.00
16690;BME280;8458;52.220;9.884;2023-11-19T08:09:12;99861.91;;;11.52;100.00
16690;BME280;8458;52.220;9.884;2023-11-19T08:11:41;99847.75;;;11.54;100.00
16690;BME280;8458;52.220;9.884;2023-11-19T08:14:08;99860.22;;;11.56;100.00
16690;BME280;8458;52.220;9.884;2023-11-19T08:16:35;99836.91;;;11.57;100.00
16690;BME280;8458;52.220;9.884;2023-11-19T08:19:03;99839.03;;;11.65;100.00
16690;BME280;8458;52.220;9.884;2023-11-19T08:21:29;99846.25;;;11.66;100.00
16690;BME280;8458;52.220;9.884;2023-11-19T08:23:56;99846.84;;;11.63;100.00
16690;BME280;8458;52.220;9.884;2023-11-19T08:26:22;99859.56;;;11.64;100.00
16690;BME280;8458;52.220;9.884;2023-11-19T08:28:50;99863.50;;;11.63;100.00
16690;BME280;8458;52.220;9.884;2023-11-19T08:31:17;99862.41;;;11.59;100.00
16690;BME280;8458;52.220;9.884;2023-11-19T08:33:43;99867.97;;;11.59;100.00
16690;BME280;8458;52.220;9.884;2023-11-19T08:36:15;99859.09;;;11.57;100.00
16690;BME280;8458;52.220;9.884;2023-11-19T08:38:42;99866.88;;;11.55;100.00
16690;BME280;8458;52.220;9.884;2023-11-19T08:41:08;99871.63;;;11.55;99.86
16690;BME280;8458;52.220;9.884;2023-11-19T08:43:35;99859.69;;;11.54;99.45
16690;BME280;8458;52.220;9.884;2023-11-19T08:46:03;99864.66;;;11.57;99.50
16690;BME280;8458;52.220;9.884;2023-11-19T08:48:30;99864.66;;;11.57;99.38
16690;BME280;8458;52.220;9.884;2023-11-19T08:50:56;99869.06;;;11.58;100.00
16690;BME280;8458;52.220;9.884;2023-11-19T08:53:23;99869.63;;;11.60;100.00
16690;BME280;8458;52.220;9.884;2023-11-19T08:55:49;99878.50;;;11.62;99.95
16690;BME280;8458;52.220;9.884;2023-11-19T08:58:15;99876.25;;;11.64;100.00
16690;BME280;8458;52.220;9.884;2023-11-19T09:00:43;99884.03;;;11.62;100.00
16690;BME280;8458;52.220;9.884;2023-11-19T09:03:11;99884.00;;;11.68;100.00
16690;BME280;8458;52.220;9.884;2023-11-19T09:05:37;99882.94;;;11.63;100.00
16690;BME280;8458;52.220;9.884;2023-11-19T09:08:04;99886.53;;;11.64;100.00
16690;BME280;8458;52.220;9.884;2023-11-19T09:10:31;99878.84;;;11.56;100.00
16690;BME280;8458;52.220;9.884;2023-11-19T09:12:58;99884.13;;;11.52;100.00
16690;BME280;8458;52.220;9.884;2023-11-19T09:15:24;99893.06;;;11.44;100.00
16690;BME280;8458;52.220;9.884;2023-11-19T09:17:51;99885.63;;;11.39;100.00
16690;BME280;8458;52.220;9.884;2023-11-19T09:20:18;99889.25;;;11.35;100.00
16690;BME280;8458;52.220;9.884;2023-11-19T09:22:45;99903.69;;;11.37;100.00
16690;BME280;8458;52.220;9.884;2023-11-19T09:25:11;99893.16;;;11.34;100.00
16690;BME280;8458;52.220;9.884;2023-11-19T09:27:42;99908.97;;;11.33;100.00
16690;BME280;8458;52.220;9.884;2023-11-19T09:30:09;99909.28;;;11.32;100.00
16690;BME280;8458;52.220;9.884;2023-11-19T09:32:36;99919.25;;;11.33;100.00
16690;BME280;8458;52.220;9.884;2023-11-19T09:35:03;99909.56;;;11.30;100.00
16690;BME280;8458;52.220;9.884;2023-11-19T09:37:31;99908.75;;;11.29;100.00
16690;BME280;8458;52.220;9.884;2023-11-19T09:39:57;99928.94;;;11.35;100.00
16690;BME280;8458;52.220;9.884;2023-11-19T09:42:24;99918.69;;;11.36;100.00
16690;BME280;8458;52.220;9.884;2023-11-19T09:44:52;99936.69;;;11.43;100.00
16690;BME280;8458;52.220;9.884;2023-11-19T09:47:19;99920.50;;;11.51;100.00
16690;BME280;8458;52.220;9.884;2023-11-19T09:49:46;99913.56;;;11.53;100.00
16690;BME280;8458;52.220;9.884;2023-11-19T09:52:13;99911.31;;;11.55;100.00
16690;BME280;8458;52.220;9.884;2023-11-19T09:54:41;99905.75;;;11.55;100.00
16690;BME280;8458;52.220;9.884;2023-11-19T09:57:08;99907.66;;;11.60;100.00
16690;BME280;8458;52.220;9.884;2023-11-19T09:59:36;99905.16;;;11.63;100.00
16690;BME280;8458;52.220;9.884;2023-11-19T10:02:05;99912.31;;;11.70;99.88
16690;BME280;8458;52.220;9.884;2023-11-19T10:04:34;99899.78;;;11.72;99.25
16690;BME280;8458;52.220;9.884;2023-11-19T10:07:02;99907.81;;;11.74;97.86
16690;BME280;8458;52.220;9.884;2023-11-19T10:09:28;99897.50;;;11.79;97.39
16690;BME280;8458;52.220;9.884;2023-11-19T10:11:56;99910.00;;;11.77;96.57
16690;BME280;8458;52.220;9.884;2023-11-19T10:14:23;99906.13;;;11.78;97.15
16690;BME280;8458;52.220;9.884;2023-11-19T10:16:49;99917.75;;;11.80;95.74
16690;BME280;8458;52.220;9.884;2023-11-19T10:19:19;99923.56;;;11.83;95.80
16690;BME280;8458;52.220;9.884;2023-11-19T10:21:46;99919.91;;;11.88;96.03
16690;BME280;8458;52.220;9.884;2023-11-19T10:24:12;99926.28;;;11.94;95.70
16690;BME280;8458;52.220;9.884;2023-11-19T10:26:40;99927.66;;;11.96;95.03
16690;BME280;8458;52.220;9.884;2023-11-19T10:29:08;99916.81;;;11.95;94.77
16690;BME280;8458;52.220;9.884;2023-11-19T10:31:38;99919.31;;;11.91;95.33
16690;BME280;8458;52.220;9.884;2023-11-19T10:34:24;99930.19;;;11.88;95.75
16690;BME280;8458;52.220;9.884;2023-11-19T10:36:50;99931.06;;;11.83;96.00
16690;BME280;8458;52.220;9.884;2023-11-19T10:39:17;99923.59;;;11.78;96.44
16690;BME280;8458;52.220;9.884;2023-11-19T10:41:44;99919.50;;;11.71;96.22
16690;BME280;8458;52.220;9.884;2023-11-19T10:44:12;99927.06;;;11.65;96.50
16690;BME280;8458;52.220;9.884;2023-11-19T10:46:39;99930.16;;;11.58;97.84
16690;BME280;8458;52.220;9.884;2023-11-19T10:49:06;99912.72;;;11.53;97.94
16690;BME280;8458;52.220;9.884;2023-11-19T10:51:33;99914.38;;;11.54;98.34
16690;BME280;8458;52.220;9.884;2023-11-19T10:54:02;99917.44;;;11.52;98.48
16690;BME280;8458;52.220;9.884;2023-11-19T10:56:31;99918.00;;;11.49;98.86
16690;BME280;8458;52.220;9.884;2023-11-19T10:58:59;99918.00;;;11.49;99.10
16690;BME280;8458;52.220;9.884;2023-11-19T11:01:32;99916.31;;;11.53;98.92
16690;BME280;8458;52.220;9.884;2023-11-19T11:04:02;99909.91;;;11.58;98.77
16690;BME280;8458;52.220;9.884;2023-11-19T11:06:29;99904.59;;;11.61;98.60
16690;BME280;8458;52.220;9.884;2023-11-19T11:08:56;99912.34;;;11.64;98.47
16690;BME280;8458;52.220;9.884;2023-11-19T11:11:24;99906.19;;;11.73;98.83
16690;BME280;8458;52.220;9.884;2023-11-19T11:13:53;99908.91;;;11.78;98.85
16690;BME280;8458;52.220;9.884;2023-11-19T11:16:22;99907.22;;;11.82;97.44
16690;BME280;8458;52.220;9.884;2023-11-19T11:18:51;99905.72;;;11.90;96.68
16690;BME280;8458;52.220;9.884;2023-11-19T11:21:21;99904.38;;;11.87;96.50
16690;BME280;8458;52.220;9.884;2023-11-19T11:24:10;99904.34;;;11.92;97.00
16690;BME280;8458;52.220;9.884;2023-11-19T11:27:02;99895.94;;;11.97;96.98
16690;BME280;8458;52.220;9.884;2023-11-19T11:29:40;99901.22;;;11.99;96.22
16690;BME280;8458;52.220;9.884;2023-11-19T11:32:18;99911.78;;;11.97;96.96
16690;BME280;8458;52.220;9.884;2023-11-19T11:35:00;99904.84;;;11.99;95.90
16690;BME280;8458;52.220;9.884;2023-11-19T11:37:32;99895.31;;;12.06;95.19
16690;BME280;8458;52.220;9.884;2023-11-19T11:40:01;99903.59;;;12.11;95.27
16690;BME280;8458;52.220;9.884;2023-11-19T11:42:34;99891.66;;;12.10;94.89
16690;BME280;8458;52.220;9.884;2023-11-19T11:45:01;99897.44;;;12.14;93.76
16690;BME280;8458;52.220;9.884;2023-11-19T11:50:50;99890.72;;;12.20;93.90
16690;BME280;8458;52.220;9.884;2023-11-19T11:53:18;99890.91;;;12.29;93.59
16690;BME280;8458;52.220;9.884;2023-11-19T11:55:58;99891.72;;;12.29;93.02
16690;BME280;8458;52.220;9.884;2023-11-19T11:58:26;99880.25;;;12.36;93.40
16690;BME280;8458;52.220;9.884;2023-11-19T12:00:53;99888.53;;;12.41;92.10
16690;BME280;8458;52.220;9.884;2023-11-19T12:03:21;99882.69;;;12.43;91.74
16690;BME280;8458;52.220;9.884;2023-11-19T12:05:49;99891.25;;;12.46;92.05
16690;BME280;8458;52.220;9.884;2023-11-19T12:08:19;99897.03;;;12.50;91.32
16690;BME280;8458;52.220;9.884;2023-11-19T12:10:47;99883.72;;;12.47;89.61
16690;BME280;8458;52.220;9.884;2023-11-19T12:13:14;99888.16;;;12.48;90.68
16690;BME280;8458;52.220;9.884;2023-11-19T12:16:08;99888.16;;;12.48;90.93
16690;BME280;8458;52.220;9.884;2023-11-19T12:18:38;99886.50;;;12.47;90.55
16690;BME280;8458;52.220;9.884;2023-11-19T12:21:06;99896.44;;;12.53;90.88
16690;BME280;8458;52.220;9.884;2023-11-19T12:23:34;99893.63;;;12.58;89.39
16690;BME280;8458;52.220;9.884;2023-11-19T12:26:01;99885.78;;;12.60;89.38
16690;BME280;8458;52.220;9.884;2023-11-19T12:28:28;99886.00;;;12.64;88.55
16690;BME280;8458;52.220;9.884;2023-11-19T12:31:07;99899.59;;;12.70;89.20
16690;BME280;8458;52.220;9.884;2023-11-19T12:33:35;99897.63;;;12.71;88.33
16690;BME280;8458;52.220;9.884;2023-11-19T12:36:03;99887.91;;;12.68;87.84
16690;BME280;8458;52.220;9.884;2023-11-19T12:38:32;99904.59;;;12.68;87.94
16690;BME280;8458;52.220;9.884;2023-11-19T12:41:05;99898.44;;;12.71;88.05
16690;BME280;8458;52.220;9.884;2023-11-19T12:43:32;99905.44;;;12.69;86.94
16690;BME280;8458;52.220;9.884;2023-11-19T12:45:59;99897.41;;;12.67;87.17
16690;BME280;8458;52.220;9.884;2023-11-19T12:48:26;99897.41;;;12.67;86.89
16690;BME280;8458;52.220;9.884;2023-11-19T12:50:53;99896.91;;;12.60;87.75
16690;BME280;8458;52.220;9.884;2023-11-19T12:53:20;99901.41;;;12.56;88.38
16690;BME280;8458;52.220;9.884;2023-11-19T12:55:48;99905.94;;;12.52;88.12
16690;BME280;8458;52.220;9.884;2023-11-19T12:58:31;99901.19;;;12.52;88.08
16690;BME280;8458;52.220;9.884;2023-11-19T13:01:01;99901.56;;;12.46;88.83
16690;BME280;8458;52.220;9.884;2023-11-19T13:03:30;99909.94;;;12.41;89.84
16690;BME280;8458;52.220;9.884;2023-11-19T13:06:01;99897.69;;;12.42;90.83
16690;BME280;8458;52.220;9.884;2023-11-19T13:08:29;99902.25;;;12.32;92.03
16690;BME280;8458;52.220;9.884;2023-11-19T13:11:03;99897.28;;;12.29;93.05